Terminal Aerodrome Forecast
Issued by NWS Cleveland, OH

Home | Current Version | Previous Version | Graphics & Text | Print | Product List | Glossary On
Versions: 1 2 3 4 5 6 7 8 9 10 11 12 13 14 15 16 17 18 19 20 21 22 23
000
FTUS41 KCLE 212300
TAFYNG
TAF
KYNG 212338Z 2200/2224 19006KT P6SM SKC
     FM221000 18006KT P6SM SCT040
     FM221300 19009KT P6SM BKN030 OVC080
      TEMPO 2214/2216 6SM -FZRA OVC020
     FM221600 19011KT 5SM -RA BR BKN020 OVC050=

USA.gov is the U.S. government's official web portal to all federal, state and local government web resources and services.